createdAt,value
2019-03-20T00:00:34.876Z,84.91
2019-03-20T00:03:04.042Z,84.85
2019-03-20T00:05:33.374Z,84.91
2019-03-20T00:08:02.387Z,86.17
2019-03-20T00:10:31.378Z,85.65
2019-03-20T00:13:00.324Z,85.44
2019-03-20T00:15:29.338Z,85.22
2019-03-20T00:17:58.507Z,84.89
2019-03-20T00:20:27.453Z,84.55
2019-03-20T00:22:56.330Z,85.24
2019-03-20T00:25:25.207Z,84.14
2019-03-20T00:27:54.167Z,84.55
2019-03-20T00:30:23.156Z,84.24
2019-03-20T00:32:52.068Z,85.15
2019-03-20T00:35:21.131Z,85.83
2019-03-20T00:37:50.134Z,85.79
2019-03-20T00:40:19.290Z,85.47
2019-03-20T00:42:48.205Z,86.58
2019-03-20T00:45:17.190Z,87.94
2019-03-20T00:47:48.383Z,87.58
2019-03-20T00:50:17.488Z,87.96
2019-03-20T00:52:46.457Z,87.29
2019-03-20T00:55:16.248Z,86.53
2019-03-20T00:57:45.270Z,86.60
2019-03-20T01:00:16.379Z,87.80
2019-03-20T01:02:45.322Z,87.95
2019-03-20T01:15:47.194Z,88.48
2019-03-20T01:18:16.168Z,88.51
2019-03-20T01:20:45.114Z,88.75
2019-03-20T01:23:14.185Z,88.58
2019-03-20T01:25:43.022Z,88.42
2019-03-20T01:28:11.954Z,88.22
2019-03-20T01:30:41.601Z,88.31
2019-03-20T01:33:11.365Z,88.21
2019-03-20T01:35:40.351Z,88.05
2019-03-20T01:38:09.265Z,87.59
2019-03-20T01:40:40.303Z,87.65
2019-03-20T01:43:09.339Z,87.72
2019-03-20T01:45:38.396Z,88.08
2019-03-20T01:48:11.287Z,88.09
2019-03-20T01:50:40.635Z,87.80
2019-03-20T01:53:09.565Z,88.30
2019-03-20T01:55:38.404Z,88.36
2019-03-20T01:58:07.321Z,88.68
2019-03-20T02:00:36.450Z,88.48
2019-03-20T02:03:05.457Z,88.50
2019-03-20T02:05:36.233Z,88.34
2019-03-20T02:08:05.080Z,88.47
2019-03-20T02:10:33.947Z,88.52
2019-03-20T02:13:02.780Z,88.29
2019-03-20T02:15:39.114Z,88.37
2019-03-20T02:18:04.836Z,88.21
2019-03-20T02:20:33.702Z,88.37
2019-03-20T02:23:02.924Z,88.58
2019-03-20T02:25:32.512Z,88.61
2019-03-20T02:28:01.405Z,88.63
2019-03-20T02:30:30.241Z,88.83
2019-03-20T02:32:59.216Z,88.98
2019-03-20T02:35:28.068Z,89.29
2019-03-20T02:37:56.967Z,89.34
2019-03-20T02:40:25.884Z,89.51
2019-03-20T02:42:54.674Z,89.69
2019-03-20T02:45:23.556Z,89.74
2019-03-20T02:47:52.441Z,89.40
2019-03-20T02:50:21.305Z,89.39
2019-03-20T02:52:50.223Z,89.50
2019-03-20T02:55:19.182Z,89.81
2019-03-20T02:57:47.999Z,89.95
2019-03-20T03:00:17.018Z,90.04
2019-03-20T03:02:46.001Z,90.07
2019-03-20T03:05:15.386Z,90.39
2019-03-20T03:07:44.349Z,90.10
2019-03-20T03:10:16.627Z,89.87
2019-03-20T03:12:45.214Z,89.57
2019-03-20T03:15:14.667Z,89.41
2019-03-20T03:17:44.831Z,89.72
2019-03-20T03:20:13.948Z,89.35
2019-03-20T03:22:42.955Z,89.44
2019-03-20T03:25:12.141Z,89.71
2019-03-20T03:27:41.125Z,89.38
2019-03-20T03:30:10.338Z,89.44
2019-03-20T03:32:39.168Z,89.33
2019-03-20T03:35:16.050Z,88.87
2019-03-20T03:37:41.519Z,88.76
2019-03-20T03:40:10.726Z,88.51
2019-03-20T03:42:39.810Z,88.48
2019-03-20T03:45:10.310Z,88.52
2019-03-20T03:47:39.218Z,87.74
2019-03-20T03:50:08.384Z,88.26
2019-03-20T03:52:37.319Z,88.74
2019-03-20T03:55:06.564Z,88.62
2019-03-20T03:57:35.741Z,88.83
2019-03-20T04:00:05.321Z,88.92
2019-03-20T04:02:34.193Z,88.98
2019-03-20T04:05:06.096Z,89.25
2019-03-20T04:07:35.199Z,89.64
2019-03-20T04:10:04.387Z,89.23
2019-03-20T04:12:33.722Z,89.24
2019-03-20T04:15:02.672Z,89.33
2019-03-20T04:17:31.654Z,89.28
2019-03-20T04:20:00.586Z,89.07
2019-03-20T04:22:29.490Z,89.18
2019-03-20T04:24:58.527Z,89.26
2019-03-20T04:27:27.561Z,89.75
2019-03-20T04:29:56.581Z,89.48
2019-03-20T04:32:28.892Z,89.52
2019-03-20T04:35:08.197Z,89.59
2019-03-20T04:37:42.759Z,89.42
2019-03-20T04:40:11.747Z,89.61
2019-03-20T04:42:40.729Z,89.90
2019-03-20T04:45:12.529Z,90.28
2019-03-20T04:47:41.248Z,90.41
2019-03-20T04:50:10.612Z,90.10
2019-03-20T04:52:39.538Z,90.06
2019-03-20T04:55:08.543Z,89.90
2019-03-20T04:57:37.458Z,89.85
2019-03-20T05:00:08.092Z,89.79
2019-03-20T05:02:37.016Z,89.79
2019-03-20T05:05:06.215Z,90.02
2019-03-20T05:07:35.090Z,90.26
2019-03-20T05:10:04.277Z,90.14
2019-03-20T05:12:33.175Z,90.08
2019-03-20T05:15:02.510Z,90.53
2019-03-20T05:17:31.483Z,90.44
2019-03-20T05:20:00.366Z,90.47
2019-03-20T05:22:31.979Z,90.55
2019-03-20T05:25:00.997Z,90.54
2019-03-20T05:27:29.912Z,90.08
2019-03-20T05:29:58.786Z,89.97
2019-03-20T05:32:27.637Z,90.05
2019-03-20T05:34:56.540Z,90.23
2019-03-20T05:37:25.389Z,90.28
2019-03-20T05:40:17.506Z,90.13
2019-03-20T05:42:46.482Z,89.89
2019-03-20T05:45:15.420Z,89.96
2019-03-20T05:47:44.446Z,90.19
2019-03-20T05:50:13.653Z,89.97
2019-03-20T05:52:42.725Z,89.93
2019-03-20T05:55:15.322Z,89.98
2019-03-20T05:57:44.368Z,90.19
2019-03-20T06:00:14.454Z,89.82
2019-03-20T06:02:43.407Z,89.36
2019-03-20T06:05:12.586Z,89.74
2019-03-20T06:07:41.747Z,89.67
2019-03-20T06:10:11.935Z,89.39
2019-03-20T06:12:40.855Z,89.82
2019-03-20T06:15:10.185Z,89.58
2019-03-20T06:17:39.083Z,89.28
2019-03-20T06:20:08.366Z,89.22
2019-03-20T06:22:37.253Z,89.09
2019-03-20T06:25:06.446Z,89.00
2019-03-20T06:27:35.475Z,89.10
2019-03-20T06:30:05.352Z,89.00
2019-03-20T06:32:34.166Z,88.99
2019-03-20T06:35:03.489Z,88.76
2019-03-20T06:37:33.008Z,88.74
2019-03-20T06:40:02.036Z,88.71
2019-03-20T06:42:30.901Z,88.57
2019-03-20T06:44:59.796Z,88.14
2019-03-20T06:47:28.990Z,87.86
2019-03-20T06:49:58.113Z,87.55
2019-03-20T06:52:32.053Z,87.52
2019-03-20T06:55:01.545Z,87.23
2019-03-20T06:57:30.459Z,87.05
2019-03-20T07:00:42.076Z,86.60
2019-03-20T07:03:14.888Z,86.30
2019-03-20T07:06:10.895Z,85.88
2019-03-20T07:08:47.106Z,85.40
2019-03-20T07:11:15.871Z,85.12
2019-03-20T07:13:44.864Z,85.37
2019-03-20T07:16:15.253Z,85.54
2019-03-20T07:18:44.107Z,84.90
2019-03-20T07:21:13.099Z,85.29
2019-03-20T07:23:42.029Z,85.04
2019-03-20T07:26:10.912Z,84.54
2019-03-20T07:28:39.760Z,84.29
2019-03-20T07:31:15.095Z,85.27
2019-03-20T07:33:39.225Z,83.97
2019-03-20T07:36:08.070Z,83.84
2019-03-20T07:38:36.919Z,83.22
2019-03-20T07:41:05.935Z,82.92
2019-03-20T07:43:37.887Z,83.18
2019-03-20T07:46:07.119Z,83.02
2019-03-20T07:48:35.992Z,83.75
2019-03-20T07:51:05.327Z,82.48
2019-03-20T07:53:34.170Z,82.36
2019-03-20T07:56:03.067Z,81.95
2019-03-20T07:58:31.922Z,81.76
2019-03-20T08:01:00.778Z,81.98
2019-03-20T08:03:29.656Z,81.81
2019-03-20T08:05:58.645Z,81.34
2019-03-20T08:08:27.504Z,81.28
2019-03-20T08:10:56.361Z,80.80
2019-03-20T08:13:25.197Z,80.93
2019-03-20T08:15:54.041Z,80.98
2019-03-20T08:18:23.145Z,80.31
2019-03-20T08:20:52.009Z,80.79
2019-03-20T08:23:20.846Z,79.79
2019-03-20T08:25:49.768Z,79.17
2019-03-20T08:28:18.631Z,79.82
2019-03-20T08:30:47.519Z,79.72
2019-03-20T08:33:16.473Z,79.83
2019-03-20T08:35:45.329Z,80.08
2019-03-20T08:38:18.697Z,80.27
2019-03-20T08:40:47.135Z,80.22
2019-03-20T08:43:16.129Z,79.60
2019-03-20T08:45:45.101Z,80.18
2019-03-20T08:48:14.012Z,79.93
2019-03-20T08:50:43.045Z,79.73
2019-03-20T08:53:11.928Z,79.65
2019-03-20T08:55:40.132Z,80.09
2019-03-20T08:58:09.012Z,79.30
2019-03-20T09:00:38.027Z,79.48
2019-03-20T09:03:06.964Z,79.56
2019-03-20T09:05:35.889Z,79.85
2019-03-20T09:08:04.885Z,79.84
2019-03-20T09:10:33.891Z,79.24
2019-03-20T09:13:02.851Z,78.95
2019-03-20T09:15:31.673Z,79.16
2019-03-20T09:18:00.753Z,79.09
2019-03-20T09:20:29.704Z,79.02
2019-03-20T09:22:58.555Z,79.23
2019-03-20T09:25:27.658Z,78.72
2019-03-20T09:27:56.652Z,78.94
2019-03-20T09:30:25.645Z,79.56
2019-03-20T09:32:55.902Z,78.83
2019-03-20T09:35:24.987Z,79.12
2019-03-20T09:37:53.896Z,79.23
2019-03-20T09:40:23.785Z,79.00
2019-03-20T09:42:53.111Z,78.68
2019-03-20T09:45:22.241Z,78.60
2019-03-20T09:47:51.194Z,79.12
2019-03-20T09:50:20.305Z,78.36
2019-03-20T09:52:50.160Z,78.27
2019-03-20T09:55:19.109Z,78.36
2019-03-20T09:57:48.026Z,78.69
2019-03-20T10:00:18.874Z,78.10
2019-03-20T10:02:47.781Z,78.83
2019-03-20T10:05:17.053Z,78.89
2019-03-20T10:07:46.331Z,78.63
2019-03-20T10:10:19.807Z,78.54
2019-03-20T10:12:48.898Z,79.17
2019-03-20T10:15:18.259Z,78.83
2019-03-20T10:17:47.249Z,79.19
2019-03-20T10:20:17.700Z,79.20
2019-03-20T10:22:46.680Z,79.63
2019-03-20T10:25:15.934Z,79.01
2019-03-20T10:27:44.960Z,79.52
2019-03-20T10:30:20.905Z,79.47
2019-03-20T10:32:49.746Z,79.01
2019-03-20T10:35:19.190Z,79.27
2019-03-20T10:37:48.173Z,78.92
2019-03-20T10:40:18.776Z,79.23
2019-03-20T10:42:47.729Z,79.30
2019-03-20T10:45:16.691Z,79.42
2019-03-20T10:47:45.687Z,79.59
2019-03-20T10:50:16.543Z,79.72
2019-03-20T10:52:45.496Z,79.57
2019-03-20T10:55:14.496Z,79.93
2019-03-20T10:57:43.546Z,80.01
2019-03-20T11:00:19.551Z,80.21
2019-03-20T11:02:48.458Z,80.00
2019-03-20T11:05:17.866Z,80.08
2019-03-20T11:07:46.925Z,80.18
2019-03-20T11:10:17.759Z,79.80
2019-03-20T11:12:46.718Z,80.20
2019-03-20T11:15:16.004Z,80.30
2019-03-20T11:17:44.947Z,80.15
2019-03-20T11:20:15.298Z,80.55
2019-03-20T11:22:44.281Z,80.62
2019-03-20T11:25:14.663Z,80.20
2019-03-20T11:27:43.560Z,79.82
2019-03-20T11:30:18.489Z,80.52
2019-03-20T11:32:47.454Z,80.48
2019-03-20T11:35:16.358Z,80.52
2019-03-20T11:37:45.328Z,80.86
2019-03-20T11:40:17.330Z,80.44
2019-03-20T11:42:46.201Z,80.72
2019-03-20T11:45:15.182Z,80.73
2019-03-20T11:47:44.171Z,81.06
2019-03-20T11:50:15.693Z,81.01
2019-03-20T11:52:44.593Z,80.85
2019-03-20T11:55:13.753Z,81.29
2019-03-20T11:57:42.751Z,81.09
2019-03-20T12:00:13.900Z,81.07
2019-03-20T12:02:43.079Z,81.39
2019-03-20T12:05:12.882Z,81.31
2019-03-20T12:07:41.698Z,81.30
2019-03-20T12:10:13.616Z,81.80
2019-03-20T12:12:42.727Z,81.81
2019-03-20T12:15:11.723Z,81.82
2019-03-20T12:17:40.885Z,82.22
2019-03-20T12:20:15.005Z,82.87
2019-03-20T12:22:44.238Z,83.38
2019-03-20T12:25:15.788Z,83.73
2019-03-20T12:27:45.002Z,83.79
2019-03-20T12:30:16.440Z,83.92
2019-03-20T12:32:45.402Z,83.92
2019-03-20T12:35:15.010Z,84.04
2019-03-20T12:37:44.103Z,84.54
2019-03-20T12:40:21.262Z,84.81
2019-03-20T12:42:50.709Z,85.28
2019-03-20T12:45:20.890Z,85.75
2019-03-20T12:47:49.818Z,86.08
2019-03-20T12:50:18.907Z,86.74
2019-03-20T12:52:47.791Z,86.84
2019-03-20T12:55:16.897Z,87.19
2019-03-20T12:57:45.874Z,87.53
2019-03-20T13:00:16.775Z,87.56
2019-03-20T13:02:45.827Z,87.44
2019-03-20T13:05:15.289Z,87.13
2019-03-20T13:07:44.431Z,86.92
2019-03-20T13:10:15.332Z,86.91
2019-03-20T13:12:44.327Z,86.52
2019-03-20T13:15:18.639Z,86.38
2019-03-20T13:17:48.638Z,86.41
2019-03-20T13:20:18.144Z,86.06
2019-03-20T13:22:55.575Z,86.18
2019-03-20T13:25:24.576Z,85.87
2019-03-20T13:27:53.561Z,86.02
2019-03-20T13:30:28.827Z,86.19
2019-03-20T13:32:57.759Z,85.92
2019-03-20T13:35:45.914Z,86.07
2019-03-20T13:38:14.905Z,86.17
2019-03-20T13:40:43.898Z,86.27
2019-03-20T13:43:16.601Z,86.72
2019-03-20T13:45:45.507Z,86.80
2019-03-20T13:48:14.490Z,87.20
2019-03-20T13:50:43.409Z,87.48
2019-03-20T13:53:12.497Z,87.64
2019-03-20T13:55:41.408Z,87.74
2019-03-20T13:58:10.375Z,87.60
2019-03-20T14:00:39.333Z,87.77
2019-03-20T14:03:08.745Z,87.78
2019-03-20T14:05:37.955Z,87.90
2019-03-20T14:08:06.952Z,88.18
2019-03-20T14:10:49.294Z,88.31
2019-03-20T14:13:06.565Z,88.54
2019-03-20T14:15:35.578Z,88.67
2019-03-20T14:18:04.743Z,88.83
2019-03-20T14:20:33.759Z,88.77
2019-03-20T14:23:02.735Z,88.78
2019-03-20T14:25:31.757Z,88.84
2019-03-20T14:28:00.616Z,88.88
2019-03-20T14:30:29.539Z,88.98
2019-03-20T14:32:58.583Z,89.01
2019-03-20T14:35:27.490Z,89.13
2019-03-20T14:37:56.388Z,89.09
2019-03-20T14:40:35.367Z,89.16
2019-03-20T14:42:59.379Z,89.16
2019-03-20T14:45:28.370Z,89.27
2019-03-20T14:47:57.367Z,89.26
2019-03-20T14:50:26.261Z,89.37
2019-03-20T14:52:55.259Z,89.27
2019-03-20T14:55:24.243Z,89.41
2019-03-20T14:57:53.123Z,89.49
2019-03-20T15:00:23.431Z,89.63
2019-03-20T15:02:52.359Z,89.67
2019-03-20T15:05:22.936Z,89.75
2019-03-20T15:07:51.847Z,90.04
2019-03-20T15:10:21.508Z,89.98
2019-03-20T15:12:50.556Z,89.96
2019-03-20T15:15:25.100Z,89.97
2019-03-20T15:17:53.996Z,90.13
2019-03-20T15:20:22.960Z,90.17
2019-03-20T15:22:51.878Z,90.27
2019-03-20T15:25:21.115Z,90.49
2019-03-20T15:27:50.066Z,90.60
2019-03-20T15:30:19.070Z,90.68
2019-03-20T15:32:47.950Z,90.83
2019-03-20T15:35:16.824Z,90.95
2019-03-20T15:37:45.627Z,90.76
2019-03-20T15:40:15.729Z,90.64
2019-03-20T15:42:44.823Z,90.70
2019-03-20T15:45:14.635Z,90.56
2019-03-20T15:47:43.766Z,90.67
2019-03-20T15:50:13.948Z,90.63
2019-03-20T15:52:42.900Z,90.55
2019-03-20T15:55:14.173Z,90.46
2019-03-20T15:57:43.091Z,90.49
2019-03-20T16:00:15.036Z,90.43
2019-03-20T16:02:43.941Z,90.51
2019-03-20T16:05:13.286Z,90.46
2019-03-20T16:07:42.401Z,90.34
2019-03-20T16:10:14.053Z,90.42
2019-03-20T16:12:43.028Z,90.37
2019-03-20T16:15:13.505Z,90.40
2019-03-20T16:17:42.389Z,90.24
2019-03-20T16:20:11.386Z,90.38
2019-03-20T16:22:40.442Z,90.51
2019-03-20T16:25:10.543Z,90.53
2019-03-20T16:27:39.375Z,90.51
2019-03-20T16:30:11.356Z,90.54
2019-03-20T16:32:40.215Z,90.51
2019-03-20T16:35:09.408Z,90.72
2019-03-20T16:37:38.291Z,90.68
2019-03-20T16:40:09.274Z,90.67
2019-03-20T16:42:38.118Z,90.79
2019-03-20T16:45:08.245Z,90.89
2019-03-20T16:47:37.125Z,90.92
2019-03-20T16:50:06.524Z,91.03
2019-03-20T16:52:35.358Z,91.13
2019-03-20T16:55:06.843Z,91.24
2019-03-20T16:57:35.720Z,91.49
2019-03-20T17:00:05.817Z,91.92
2019-03-20T17:02:34.707Z,92.46
2019-03-20T17:05:03.702Z,93.77
2019-03-20T17:07:39.666Z,94.36
2019-03-20T17:10:12.453Z,94.60
2019-03-20T17:12:41.368Z,95.05
2019-03-20T17:15:14.617Z,95.44
2019-03-20T17:17:43.524Z,95.62
2019-03-20T17:24:13.222Z,96.34
2019-03-20T17:27:24.663Z,96.67
2019-03-20T17:30:50.452Z,96.98
2019-03-20T17:33:52.579Z,97.05
2019-03-20T17:36:25.062Z,97.56
2019-03-20T17:45:59.666Z,97.45
2019-03-20T17:48:29.178Z,97.27
2019-03-20T17:51:10.524Z,97.16
2019-03-20T17:53:56.276Z,97.27
2019-03-20T17:56:28.548Z,96.96
2019-03-20T18:02:23.899Z,96.95
2019-03-20T18:04:53.397Z,96.85
2019-03-20T18:07:28.265Z,96.63
2019-03-20T18:10:03.076Z,96.46
2019-03-20T18:16:25.333Z,96.49
2019-03-20T18:18:44.778Z,96.39
2019-03-20T18:24:11.971Z,96.29
2019-03-20T18:27:00.029Z,96.28
2019-03-20T18:30:05.061Z,96.20
2019-03-20T18:32:37.720Z,96.19
2019-03-20T18:35:08.477Z,96.15
2019-03-20T18:37:37.959Z,96.11
2019-03-20T18:40:09.264Z,96.18
2019-03-20T18:42:38.498Z,96.28
2019-03-20T18:45:08.212Z,96.14
2019-03-20T18:47:38.447Z,96.16
2019-03-20T18:50:07.499Z,96.05
2019-03-20T18:52:36.686Z,96.01
2019-03-20T18:55:14.812Z,95.98
2019-03-20T18:57:46.566Z,96.00
2019-03-20T19:00:25.423Z,95.93
2019-03-20T19:02:55.360Z,96.05
2019-03-20T19:05:58.653Z,96.06
2019-03-20T19:28:57.283Z,96.11
2019-03-20T19:31:28.844Z,96.05
2019-03-20T19:33:59.580Z,96.12
2019-03-20T19:36:29.529Z,96.06
2019-03-20T19:39:00.743Z,96.06
2019-03-20T19:41:30.762Z,95.94
2019-03-20T19:44:00.770Z,96.00
2019-03-20T19:46:33.430Z,96.05
2019-03-20T19:49:02.449Z,96.11
2019-03-20T19:51:31.612Z,96.09
2019-03-20T19:54:00.587Z,96.15
2019-03-20T19:56:29.916Z,96.09
2019-03-20T19:58:58.848Z,96.10
2019-03-20T20:01:31.133Z,96.12
2019-03-20T20:04:00.185Z,96.13
2019-03-20T20:06:30.358Z,96.11
2019-03-20T20:09:00.388Z,96.16
2019-03-20T20:11:29.235Z,96.24
2019-03-20T20:13:58.347Z,96.11
2019-03-20T20:16:27.492Z,96.15
2019-03-20T20:18:56.765Z,96.21
2019-03-20T20:21:25.972Z,96.19
2019-03-20T20:23:55.309Z,96.20
2019-03-20T20:26:24.299Z,96.29
2019-03-20T20:28:53.130Z,96.33
2019-03-20T20:31:24.532Z,96.42
2019-03-20T20:33:53.646Z,96.40
2019-03-20T20:36:22.472Z,96.34
2019-03-20T20:38:51.661Z,96.31
2019-03-20T20:41:21.166Z,96.39
2019-03-20T20:43:50.069Z,96.46
2019-03-20T20:46:18.873Z,96.54
2019-03-20T20:48:49.076Z,96.48
2019-03-20T20:51:18.093Z,96.43
2019-03-20T20:53:46.898Z,96.56
2019-03-20T20:56:16.260Z,96.64
2019-03-20T20:58:45.628Z,96.62
2019-03-20T21:01:15.286Z,96.63
2019-03-20T21:07:11.943Z,96.60
2019-03-20T21:09:40.787Z,96.52
2019-03-20T21:12:13.196Z,96.46
2019-03-20T21:14:42.631Z,96.41
2019-03-20T21:17:16.510Z,96.35
2019-03-20T21:19:48.012Z,96.33
2019-03-20T21:23:04.564Z,96.37
2019-03-20T21:25:35.702Z,96.48
2019-03-20T21:28:42.375Z,96.41
2019-03-20T21:31:20.973Z,96.33
2019-03-20T21:34:30.985Z,96.33
2019-03-20T21:37:35.667Z,96.26
2019-03-20T21:40:06.202Z,96.33
2019-03-20T21:43:18.674Z,96.36
2019-03-20T21:46:40.508Z,96.33
2019-03-20T21:49:10.011Z,96.34
2019-03-20T21:51:39.375Z,96.35
2019-03-20T21:54:49.734Z,96.22
2019-03-20T21:57:47.626Z,96.16
2019-03-20T22:01:25.180Z,96.08
2019-03-20T22:03:54.580Z,96.06
2019-03-20T22:06:59.085Z,96.01
2019-03-20T22:10:05.742Z,95.95
2019-03-20T22:12:59.265Z,95.98
2019-03-20T22:15:51.158Z,95.93
2019-03-20T22:19:04.224Z,95.94
2019-03-20T22:22:01.623Z,95.95
2019-03-20T22:24:52.433Z,96.14
2019-03-20T22:27:31.581Z,96.17
2019-03-20T22:30:01.119Z,96.18
2019-03-20T22:33:17.427Z,96.21
2019-03-20T22:35:53.060Z,96.27
2019-03-20T22:39:01.660Z,96.29
2019-03-20T22:41:57.482Z,96.18
2019-03-20T22:44:29.798Z,96.28
2019-03-20T22:48:07.037Z,96.18
2019-03-20T22:51:15.730Z,96.18
2019-03-20T22:54:08.598Z,96.03
2019-03-20T22:57:24.221Z,95.99
2019-03-20T22:59:53.885Z,95.88
2019-03-20T23:02:51.088Z,95.77
2019-03-20T23:05:20.691Z,95.76
2019-03-20T23:07:50.511Z,95.76
2019-03-20T23:10:20.047Z,95.79
2019-03-20T23:12:49.425Z,95.78
2019-03-20T23:15:19.803Z,95.75
2019-03-20T23:17:50.791Z,95.75
2019-03-20T23:20:23.580Z,95.90
2019-03-20T23:22:54.365Z,95.90
2019-03-20T23:25:28.555Z,95.94
2019-03-20T23:27:57.908Z,95.94
2019-03-20T23:30:27.807Z,96.04
2019-03-20T23:32:57.220Z,96.02
2019-03-20T23:35:26.684Z,96.11
2019-03-20T23:37:56.085Z,96.05
2019-03-20T23:40:25.647Z,96.18
2019-03-20T23:42:55.279Z,96.27
2019-03-20T23:45:25.372Z,96.26
2019-03-20T23:48:01.071Z,96.32
2019-03-20T23:50:30.591Z,96.42
2019-03-20T23:53:00.287Z,96.48
2019-03-20T23:55:29.844Z,96.53
2019-03-20T23:57:59.619Z,96.44
